sensor_id;sensor_type;location;lat;lon;timestamp;temperature;humidity
55329;DHT22;41205;44.264;19.884;2023-11-19T00:02:24;154.40;2252.80
55329;DHT22;41205;44.264;19.884;2023-11-19T00:04:49;154.30;2252.80
55329;DHT22;41205;44.264;19.884;2023-11-19T00:07:15;154.30;2252.80
55329;DHT22;41205;44.264;19.884;2023-11-19T00:09:41;154.40;2252.80
55329;DHT22;41205;44.264;19.884;2023-11-19T00:12:07;154.30;2252.80
55329;DHT22;41205;44.264;19.884;2023-11-19T00:14:33;154.40;2252.80
55329;DHT22;41205;44.264;19.884;2023-11-19T00:17:00;154.40;2252.80
55329;DHT22;41205;44.264;19.884;2023-11-19T00:19:26;154.30;2252.80
55329;DHT22;41205;44.264;19.884;2023-11-19T00:21:52;154.10;2252.80
55329;DHT22;41205;44.264;19.884;2023-11-19T00:24:18;154.10;2252.80
55329;DHT22;41205;44.264;19.884;2023-11-19T00:26:44;154.20;2252.80
55329;DHT22;41205;44.264;19.884;2023-11-19T00:29:10;154.20;2252.80
55329;DHT22;41205;44.264;19.884;2023-11-19T00:31:39;154.10;2252.80
55329;DHT22;41205;44.264;19.884;2023-11-19T00:34:04;154.00;2252.80
55329;DHT22;41205;44.264;19.884;2023-11-19T00:36:31;154.10;2252.80
55329;DHT22;41205;44.264;19.884;2023-11-19T00:38:57;154.00;2252.80
55329;DHT22;41205;44.264;19.884;2023-11-19T00:41:23;154.00;2252.80
55329;DHT22;41205;44.264;19.884;2023-11-19T00:43:49;154.10;2252.80
55329;DHT22;41205;44.264;19.884;2023-11-19T00:46:14;154.10;2252.80
55329;DHT22;41205;44.264;19.884;2023-11-19T00:48:40;154.00;2252.80
55329;DHT22;41205;44.264;19.884;2023-11-19T00:51:06;154.00;2252.80
55329;DHT22;41205;44.264;19.884;2023-11-19T00:53:32;154.00;2252.80
55329;DHT22;41205;44.264;19.884;2023-11-19T00:55:59;154.10;2252.80
55329;DHT22;41205;44.264;19.884;2023-11-19T00:58:25;154.10;2252.80
55329;DHT22;41205;44.264;19.884;2023-11-19T01:00:51;154.10;2252.80
55329;DHT22;41205;44.264;19.884;2023-11-19T01:03:17;154.20;2252.80
55329;DHT22;41205;44.264;19.884;2023-11-19T01:05:43;154.20;2252.80
55329;DHT22;41205;44.264;19.884;2023-11-19T01:08:10;154.10;2252.80
55329;DHT22;41205;44.264;19.884;2023-11-19T01:10:39;154.10;2252.80
55329;DHT22;41205;44.264;19.884;2023-11-19T01:13:05;154.30;2252.80
55329;DHT22;41205;44.264;19.884;2023-11-19T01:15:33;154.30;2252.80
55329;DHT22;41205;44.264;19.884;2023-11-19T01:17:59;154.40;2252.80
55329;DHT22;41205;44.264;19.884;2023-11-19T01:20:24;154.30;2252.80
55329;DHT22;41205;44.264;19.884;2023-11-19T01:22:52;154.30;2252.80
55329;DHT22;41205;44.264;19.884;2023-11-19T01:25:17;154.40;2252.80
55329;DHT22;41205;44.264;19.884;2023-11-19T01:27:43;154.30;2252.80
55329;DHT22;41205;44.264;19.884;2023-11-19T01:30:09;154.30;2252.80
55329;DHT22;41205;44.264;19.884;2023-11-19T01:32:38;154.30;2252.80
55329;DHT22;41205;44.264;19.884;2023-11-19T01:35:04;154.40;2252.80
55329;DHT22;41205;44.264;19.884;2023-11-19T01:37:30;154.40;2252.80
55329;DHT22;41205;44.264;19.884;2023-11-19T01:39:57;154.40;2252.80
55329;DHT22;41205;44.264;19.884;2023-11-19T01:42:23;154.40;2252.80
55329;DHT22;41205;44.264;19.884;2023-11-19T01:45:00;154.40;2252.80
55329;DHT22;41205;44.264;19.884;2023-11-19T01:47:30;154.40;2252.80
55329;DHT22;41205;44.264;19.884;2023-11-19T01:49:56;154.30;2252.80
55329;DHT22;41205;44.264;19.884;2023-11-19T01:52:23;154.40;2252.80
55329;DHT22;41205;44.264;19.884;2023-11-19T01:54:50;154.40;2252.80
55329;DHT22;41205;44.264;19.884;2023-11-19T01:57:16;154.40;2252.80
55329;DHT22;41205;44.264;19.884;2023-11-19T01:59:43;154.50;2252.80
55329;DHT22;41205;44.264;19.884;2023-11-19T02:02:09;154.40;2252.80
55329;DHT22;41205;44.264;19.884;2023-11-19T02:04:34;154.30;2252.80
55329;DHT22;41205;44.264;19.884;2023-11-19T02:07:00;154.30;2252.80
55329;DHT22;41205;44.264;19.884;2023-11-19T02:09:26;154.30;2252.80
55329;DHT22;41205;44.264;19.884;2023-11-19T02:11:53;154.30;2252.80
55329;DHT22;41205;44.264;19.884;2023-11-19T02:14:24;154.50;2252.80
55329;DHT22;41205;44.264;19.884;2023-11-19T02:16:51;154.30;2252.80
55329;DHT22;41205;44.264;19.884;2023-11-19T02:19:19;154.40;2252.80
55329;DHT22;41205;44.264;19.884;2023-11-19T02:21:45;154.40;2252.80
55329;DHT22;41205;44.264;19.884;2023-11-19T02:24:12;154.20;2252.80
55329;DHT22;41205;44.264;19.884;2023-11-19T02:26:46;154.20;2252.80
55329;DHT22;41205;44.264;19.884;2023-11-19T02:29:13;154.30;2252.80
55329;DHT22;41205;44.264;19.884;2023-11-19T02:31:39;154.20;2252.80
55329;DHT22;41205;44.264;19.884;2023-11-19T02:34:05;154.30;2252.80
55329;DHT22;41205;44.264;19.884;2023-11-19T02:36:31;154.20;2252.80
55329;DHT22;41205;44.264;19.884;2023-11-19T02:38:58;154.30;2252.80
55329;DHT22;41205;44.264;19.884;2023-11-19T02:41:23;154.30;2252.80
55329;DHT22;41205;44.264;19.884;2023-11-19T02:43:49;154.30;2252.80
55329;DHT22;41205;44.264;19.884;2023-11-19T02:46:15;154.30;2252.80
55329;DHT22;41205;44.264;19.884;2023-11-19T02:48:43;154.30;2252.80
55329;DHT22;41205;44.264;19.884;2023-11-19T02:51:10;154.30;2252.80
55329;DHT22;41205;44.264;19.884;2023-11-19T02:53:36;154.30;2252.80
55329;DHT22;41205;44.264;19.884;2023-11-19T02:56:06;154.20;2252.80
55329;DHT22;41205;44.264;19.884;2023-11-19T02:58:42;154.10;2252.80
55329;DHT22;41205;44.264;19.884;2023-11-19T03:01:08;154.10;2252.80
55329;DHT22;41205;44.264;19.884;2023-11-19T03:03:48;154.00;2252.80
55329;DHT22;41205;44.264;19.884;2023-11-19T03:06:19;154.00;2252.80
55329;DHT22;41205;44.264;19.884;2023-11-19T03:08:46;154.10;2252.80
55329;DHT22;41205;44.264;19.884;2023-11-19T03:11:11;154.00;2252.80
55329;DHT22;41205;44.264;19.884;2023-11-19T03:13:37;154.00;2252.80
55329;DHT22;41205;44.264;19.884;2023-11-19T03:16:03;154.10;2252.80
55329;DHT22;41205;44.264;19.884;2023-11-19T03:18:29;154.10;2252.80
55329;DHT22;41205;44.264;19.884;2023-11-19T03:20:55;154.10;2252.80
55329;DHT22;41205;44.264;19.884;2023-11-19T03:23:24;154.10;2252.80
55329;DHT22;41205;44.264;19.884;2023-11-19T03:25:53;154.10;2252.80
55329;DHT22;41205;44.264;19.884;2023-11-19T03:28:18;154.10;2252.80
55329;DHT22;41205;44.264;19.884;2023-11-19T03:30:44;154.10;2252.80
55329;DHT22;41205;44.264;19.884;2023-11-19T03:33:10;154.20;2252.80
55329;DHT22;41205;44.264;19.884;2023-11-19T03:35:36;154.30;2252.80
55329;DHT22;41205;44.264;19.884;2023-11-19T03:38:01;154.30;2252.80
55329;DHT22;41205;44.264;19.884;2023-11-19T03:40:28;154.40;2252.80
55329;DHT22;41205;44.264;19.884;2023-11-19T03:42:56;154.10;2252.80
55329;DHT22;41205;44.264;19.884;2023-11-19T03:45:23;154.10;2252.80
55329;DHT22;41205;44.264;19.884;2023-11-19T03:47:48;154.00;2252.80
55329;DHT22;41205;44.264;19.884;2023-11-19T03:50:15;154.00;2252.80
55329;DHT22;41205;44.264;19.884;2023-11-19T03:52:42;153.90;2252.80
55329;DHT22;41205;44.264;19.884;2023-11-19T03:55:07;153.90;2252.80
55329;DHT22;41205;44.264;19.884;2023-11-19T03:57:34;153.80;2252.80
55329;DHT22;41205;44.264;19.884;2023-11-19T04:00:01;153.80;2252.80
55329;DHT22;41205;44.264;19.884;2023-11-19T04:02:33;153.60;2252.80
55329;DHT22;41205;44.264;19.884;2023-11-19T04:04:59;128.90;2252.80
55329;DHT22;41205;44.264;19.884;2023-11-19T04:07:25;128.90;2252.80
55329;DHT22;41205;44.264;19.884;2023-11-19T04:09:50;128.80;2252.80
55329;DHT22;41205;44.264;19.884;2023-11-19T04:12:16;128.70;2252.80
55329;DHT22;41205;44.264;19.884;2023-11-19T04:14:42;128.60;2252.80
55329;DHT22;41205;44.264;19.884;2023-11-19T04:17:08;128.60;2252.80
55329;DHT22;41205;44.264;19.884;2023-11-19T04:19:33;128.50;2252.80
55329;DHT22;41205;44.264;19.884;2023-11-19T04:21:59;128.50;2252.80
55329;DHT22;41205;44.264;19.884;2023-11-19T04:24:25;128.40;2252.80
55329;DHT22;41205;44.264;19.884;2023-11-19T04:26:50;128.40;2252.80
55329;DHT22;41205;44.264;19.884;2023-11-19T04:29:17;128.40;2252.80
55329;DHT22;41205;44.264;19.884;2023-11-19T04:31:44;128.30;2252.80
55329;DHT22;41205;44.264;19.884;2023-11-19T04:34:10;128.30;2252.80
55329;DHT22;41205;44.264;19.884;2023-11-19T04:36:37;128.20;2252.80
55329;DHT22;41205;44.264;19.884;2023-11-19T04:39:03;128.20;2252.80
55329;DHT22;41205;44.264;19.884;2023-11-19T04:41:50;128.10;2252.80
55329;DHT22;41205;44.264;19.884;2023-11-19T04:44:19;128.10;2252.80
55329;DHT22;41205;44.264;19.884;2023-11-19T04:46:45;128.00;2252.80
55329;DHT22;41205;44.264;19.884;2023-11-19T04:49:12;128.10;2252.80
55329;DHT22;41205;44.264;19.884;2023-11-19T04:51:41;103.30;2227.20
55329;DHT22;41205;44.264;19.884;2023-11-19T04:54:08;103.20;2227.20
55329;DHT22;41205;44.264;19.884;2023-11-19T04:56:35;128.00;2252.80
55329;DHT22;41205;44.264;19.884;2023-11-19T04:59:02;103.20;2227.20
55329;DHT22;41205;44.264;19.884;2023-11-19T05:01:28;103.30;2227.20
55329;DHT22;41205;44.264;19.884;2023-11-19T05:03:54;103.20;2227.20
55329;DHT22;41205;44.264;19.884;2023-11-19T05:06:19;103.20;2227.20
55329;DHT22;41205;44.264;19.884;2023-11-19T05:08:45;103.20;2227.20
55329;DHT22;41205;44.264;19.884;2023-11-19T05:11:11;103.20;2227.20
55329;DHT22;41205;44.264;19.884;2023-11-19T05:13:44;103.20;2227.20
55329;DHT22;41205;44.264;19.884;2023-11-19T05:16:11;103.10;2227.20
55329;DHT22;41205;44.264;19.884;2023-11-19T05:18:39;103.10;2227.20
55329;DHT22;41205;44.264;19.884;2023-11-19T05:21:06;103.10;2227.20
55329;DHT22;41205;44.264;19.884;2023-11-19T05:23:32;102.90;2227.20
55329;DHT22;41205;44.264;19.884;2023-11-19T05:26:02;102.90;2227.20
55329;DHT22;41205;44.264;19.884;2023-11-19T05:28:28;102.80;2227.20
55329;DHT22;41205;44.264;19.884;2023-11-19T05:30:54;102.70;2227.20
55329;DHT22;41205;44.264;19.884;2023-11-19T05:33:20;102.70;2227.20
55329;DHT22;41205;44.264;19.884;2023-11-19T05:35:46;102.70;2227.20
55329;DHT22;41205;44.264;19.884;2023-11-19T05:38:12;102.70;2227.20
55329;DHT22;41205;44.264;19.884;2023-11-19T05:40:38;102.80;2227.20
55329;DHT22;41205;44.264;19.884;2023-11-19T05:43:05;102.80;2227.20
55329;DHT22;41205;44.264;19.884;2023-11-19T05:45:32;102.80;2227.20
55329;DHT22;41205;44.264;19.884;2023-11-19T05:47:57;102.80;2227.20
55329;DHT22;41205;44.264;19.884;2023-11-19T05:50:23;102.90;2227.20
55329;DHT22;41205;44.264;19.884;2023-11-19T05:52:49;102.80;2227.20
55329;DHT22;41205;44.264;19.884;2023-11-19T05:55:15;102.70;2227.20
55329;DHT22;41205;44.264;19.884;2023-11-19T05:57:41;102.80;2227.20
55329;DHT22;41205;44.264;19.884;2023-11-19T06:00:08;102.80;2227.20
55329;DHT22;41205;44.264;19.884;2023-11-19T06:02:34;102.80;2227.20
55329;DHT22;41205;44.264;19.884;2023-11-19T06:05:00;102.80;2227.20
55329;DHT22;41205;44.264;19.884;2023-11-19T06:07:27;102.80;2227.20
55329;DHT22;41205;44.264;19.884;2023-11-19T06:09:53;102.80;2227.20
55329;DHT22;41205;44.264;19.884;2023-11-19T06:12:19;102.90;2227.20
55329;DHT22;41205;44.264;19.884;2023-11-19T06:14:44;102.90;2227.20
55329;DHT22;41205;44.264;19.884;2023-11-19T06:17:10;102.90;2227.20
55329;DHT22;41205;44.264;19.884;2023-11-19T06:19:37;102.90;2227.20
55329;DHT22;41205;44.264;19.884;2023-11-19T06:22:03;102.80;2227.20
55329;DHT22;41205;44.264;19.884;2023-11-19T06:24:29;103.00;2227.20
55329;DHT22;41205;44.264;19.884;2023-11-19T06:26:55;102.90;2227.20
55329;DHT22;41205;44.264;19.884;2023-11-19T06:29:21;102.80;2227.20
55329;DHT22;41205;44.264;19.884;2023-11-19T06:31:46;102.80;2227.20
55329;DHT22;41205;44.264;19.884;2023-11-19T06:34:15;102.80;2227.20
55329;DHT22;41205;44.264;19.884;2023-11-19T06:36:41;102.90;2227.20
55329;DHT22;41205;44.264;19.884;2023-11-19T06:39:09;102.90;2227.20
55329;DHT22;41205;44.264;19.884;2023-11-19T06:41:36;102.90;2227.20
55329;DHT22;41205;44.264;19.884;2023-11-19T06:44:04;103.00;2227.20
55329;DHT22;41205;44.264;19.884;2023-11-19T06:46:30;103.00;2227.20
55329;DHT22;41205;44.264;19.884;2023-11-19T06:48:57;102.90;2227.20
55329;DHT22;41205;44.264;19.884;2023-11-19T06:51:22;102.80;2227.20
55329;DHT22;41205;44.264;19.884;2023-11-19T06:53:50;102.70;2227.20
55329;DHT22;41205;44.264;19.884;2023-11-19T06:56:23;102.70;2227.20
55329;DHT22;41205;44.264;19.884;2023-11-19T06:58:49;102.50;2227.20
55329;DHT22;41205;44.264;19.884;2023-11-19T07:01:16;102.50;2227.20
55329;DHT22;41205;44.264;19.884;2023-11-19T07:03:42;102.40;2227.20
55329;DHT22;41205;44.264;19.884;2023-11-19T07:06:08;102.50;2227.20
55329;DHT22;41205;44.264;19.884;2023-11-19T07:08:34;102.50;2227.20
55329;DHT22;41205;44.264;19.884;2023-11-19T07:11:00;102.70;2227.20
55329;DHT22;41205;44.264;19.884;2023-11-19T07:13:25;102.90;2227.20
55329;DHT22;41205;44.264;19.884;2023-11-19T07:15:55;102.90;2227.20
55329;DHT22;41205;44.264;19.884;2023-11-19T07:18:21;103.20;2227.20
55329;DHT22;41205;44.264;19.884;2023-11-19T07:20:48;103.20;2227.20
55329;DHT22;41205;44.264;19.884;2023-11-19T07:23:14;103.30;2227.20
55329;DHT22;41205;44.264;19.884;2023-11-19T07:25:43;128.10;2252.80
55329;DHT22;41205;44.264;19.884;2023-11-19T07:28:13;128.10;2252.80
55329;DHT22;41205;44.264;19.884;2023-11-19T07:30:38;128.10;2252.80
55329;DHT22;41205;44.264;19.884;2023-11-19T07:33:04;128.10;2252.80
55329;DHT22;41205;44.264;19.884;2023-11-19T07:35:31;128.40;2252.80
55329;DHT22;41205;44.264;19.884;2023-11-19T07:37:57;179.50;2252.80
55329;DHT22;41205;44.264;19.884;2023-11-19T07:40:23;230.70;2252.80
55329;DHT22;41205;44.264;19.884;2023-11-19T07:42:49;281.80;2278.40
55329;DHT22;41205;44.264;19.884;2023-11-19T07:45:16;307.60;2201.60
55329;DHT22;41205;44.264;19.884;2023-11-19T07:47:42;308.00;2124.80
55329;DHT22;41205;44.264;19.884;2023-11-19T07:50:10;333.20;2099.20
55329;DHT22;41205;44.264;19.884;2023-11-19T07:52:37;358.50;2022.40
55329;DHT22;41205;44.264;19.884;2023-11-19T07:55:03;358.90;1971.20
55329;DHT22;41205;44.264;19.884;2023-11-19T07:57:30;384.60;1868.80
55329;DHT22;41205;44.264;19.884;2023-11-19T07:59:57;409.60;1843.20
55329;DHT22;41205;44.264;19.884;2023-11-19T08:02:23;409.70;1817.60
55329;DHT22;41205;44.264;19.884;2023-11-19T08:04:50;410.20;1792.00
55329;DHT22;41205;44.264;19.884;2023-11-19T08:07:21;410.40;1766.40
55329;DHT22;41205;44.264;19.884;2023-11-19T08:09:47;436.10;1689.60
55329;DHT22;41205;44.264;19.884;2023-11-19T08:12:13;460.90;1689.60
55329;DHT22;41205;44.264;19.884;2023-11-19T08:14:43;461.00;1612.80
55329;DHT22;41205;44.264;19.884;2023-11-19T08:17:09;486.60;1587.20
55329;DHT22;41205;44.264;19.884;2023-11-19T08:19:35;461.70;1587.20
55329;DHT22;41205;44.264;19.884;2023-11-19T08:22:01;461.20;1587.20
55329;DHT22;41205;44.264;19.884;2023-11-19T08:24:27;461.20;1587.20
55329;DHT22;41205;44.264;19.884;2023-11-19T08:26:56;435.80;1612.80
55329;DHT22;41205;44.264;19.884;2023-11-19T08:29:22;435.30;1638.40
55329;DHT22;41205;44.264;19.884;2023-11-19T08:31:48;435.60;1612.80
55329;DHT22;41205;44.264;19.884;2023-11-19T08:34:14;436.10;1561.60
55329;DHT22;41205;44.264;19.884;2023-11-19T08:36:41;461.10;1587.20
55329;DHT22;41205;44.264;19.884;2023-11-19T08:39:06;461.20;1561.60
55329;DHT22;41205;44.264;19.884;2023-11-19T08:41:34;486.70;1510.40
55329;DHT22;41205;44.264;19.884;2023-11-19T08:44:00;461.70;1510.40
55329;DHT22;41205;44.264;19.884;2023-11-19T08:46:26;461.20;1536.00
55329;DHT22;41205;44.264;19.884;2023-11-19T08:48:51;487.10;1484.80
55329;DHT22;41205;44.264;19.884;2023-11-19T08:51:17;487.00;1459.20
55329;DHT22;41205;44.264;19.884;2023-11-19T08:53:43;538.10;1382.40
55329;DHT22;41205;44.264;19.884;2023-11-19T08:56:08;487.30;1433.60
55329;DHT22;41205;44.264;19.884;2023-11-19T08:58:34;538.30;1382.40
55329;DHT22;41205;44.264;19.884;2023-11-19T09:01:00;512.40;1408.00
55329;DHT22;41205;44.264;19.884;2023-11-19T09:03:26;512.40;1382.40
55329;DHT22;41205;44.264;19.884;2023-11-19T09:05:52;512.50;1382.40
55329;DHT22;41205;44.264;19.884;2023-11-19T09:08:18;537.70;1408.00
55329;DHT22;41205;44.264;19.884;2023-11-19T09:10:43;512.20;1408.00
55329;DHT22;41205;44.264;19.884;2023-11-19T09:13:09;512.30;1408.00
55329;DHT22;41205;44.264;19.884;2023-11-19T09:15:35;538.20;1356.80
55329;DHT22;41205;44.264;19.884;2023-11-19T09:18:00;487.10;1408.00
55329;DHT22;41205;44.264;19.884;2023-11-19T09:20:26;461.50;1459.20
55329;DHT22;41205;44.264;19.884;2023-11-19T09:22:52;461.70;1433.60
55329;DHT22;41205;44.264;19.884;2023-11-19T09:25:18;486.50;1459.20
55329;DHT22;41205;44.264;19.884;2023-11-19T09:27:44;461.70;1459.20
55329;DHT22;41205;44.264;19.884;2023-11-19T09:30:10;435.90;1484.80
55329;DHT22;41205;44.264;19.884;2023-11-19T09:32:36;435.50;1536.00
55329;DHT22;41205;44.264;19.884;2023-11-19T09:35:03;435.30;1510.40
55329;DHT22;41205;44.264;19.884;2023-11-19T09:37:29;409.60;1612.80
55329;DHT22;41205;44.264;19.884;2023-11-19T09:39:55;409.60;1587.20
55329;DHT22;41205;44.264;19.884;2023-11-19T09:42:20;384.00;1612.80
55329;DHT22;41205;44.264;19.884;2023-11-19T09:44:47;359.10;1638.40
55329;DHT22;41205;44.264;19.884;2023-11-19T09:47:14;384.40;1587.20
55329;DHT22;41205;44.264;19.884;2023-11-19T09:49:42;359.30;1612.80
55329;DHT22;41205;44.264;19.884;2023-11-19T09:52:08;384.30;1587.20
55329;DHT22;41205;44.264;19.884;2023-11-19T09:54:34;358.60;1664.00
55329;DHT22;41205;44.264;19.884;2023-11-19T09:57:02;333.40;1715.20
55329;DHT22;41205;44.264;19.884;2023-11-19T09:59:31;332.80;1766.40
55329;DHT22;41205;44.264;19.884;2023-11-19T10:01:59;333.40;1740.80
55329;DHT22;41205;44.264;19.884;2023-11-19T10:04:25;332.80;1766.40
55329;DHT22;41205;44.264;19.884;2023-11-19T10:06:54;307.80;1766.40
55329;DHT22;41205;44.264;19.884;2023-11-19T10:09:20;307.50;1792.00
55329;DHT22;41205;44.264;19.884;2023-11-19T10:11:46;307.60;1792.00
55329;DHT22;41205;44.264;19.884;2023-11-19T10:14:13;307.90;1766.40
55329;DHT22;41205;44.264;19.884;2023-11-19T10:16:40;333.10;1740.80
55329;DHT22;41205;44.264;19.884;2023-11-19T10:19:06;332.90;1766.40
55329;DHT22;41205;44.264;19.884;2023-11-19T10:21:33;307.70;1766.40
55329;DHT22;41205;44.264;19.884;2023-11-19T10:23:59;308.10;1740.80
55329;DHT22;41205;44.264;19.884;2023-11-19T10:26:27;333.10;1740.80
55329;DHT22;41205;44.264;19.884;2023-11-19T10:28:53;332.90;1792.00
55329;DHT22;41205;44.264;19.884;2023-11-19T10:31:20;333.10;1766.40
55329;DHT22;41205;44.264;19.884;2023-11-19T10:33:50;333.30;1740.80
55329;DHT22;41205;44.264;19.884;2023-11-19T10:36:17;333.40;1740.80
55329;DHT22;41205;44.264;19.884;2023-11-19T10:38:52;333.50;1740.80
55329;DHT22;41205;44.264;19.884;2023-11-19T10:41:32;333.60;1766.40
55329;DHT22;41205;44.264;19.884;2023-11-19T10:44:01;333.50;1715.20
55329;DHT22;41205;44.264;19.884;2023-11-19T10:46:48;333.50;1715.20
55329;DHT22;41205;44.264;19.884;2023-11-19T10:49:14;333.30;1740.80
55329;DHT22;41205;44.264;19.884;2023-11-19T10:51:45;333.10;1740.80
55329;DHT22;41205;44.264;19.884;2023-11-19T10:54:15;308.10;1740.80
55329;DHT22;41205;44.264;19.884;2023-11-19T10:56:44;332.90;1740.80
55329;DHT22;41205;44.264;19.884;2023-11-19T10:59:13;332.80;1740.80
55329;DHT22;41205;44.264;19.884;2023-11-19T11:01:44;333.10;1740.80
55329;DHT22;41205;44.264;19.884;2023-11-19T11:04:14;333.20;1715.20
55329;DHT22;41205;44.264;19.884;2023-11-19T11:06:41;333.40;1766.40
55329;DHT22;41205;44.264;19.884;2023-11-19T11:09:07;333.30;1740.80
55329;DHT22;41205;44.264;19.884;2023-11-19T11:11:39;333.30;1766.40
55329;DHT22;41205;44.264;19.884;2023-11-19T11:14:05;333.30;1689.60
55329;DHT22;41205;44.264;19.884;2023-11-19T11:16:31;333.60;1689.60
55329;DHT22;41205;44.264;19.884;2023-11-19T11:18:58;333.70;1664.00
55329;DHT22;41205;44.264;19.884;2023-11-19T11:21:26;358.50;1689.60
55329;DHT22;41205;44.264;19.884;2023-11-19T11:29:20;358.60;1689.60
55329;DHT22;41205;44.264;19.884;2023-11-19T11:31:56;358.80;1689.60
55329;DHT22;41205;44.264;19.884;2023-11-19T11:34:41;358.90;1664.00
55329;DHT22;41205;44.264;19.884;2023-11-19T11:37:21;359.00;1664.00
55329;DHT22;41205;44.264;19.884;2023-11-19T11:39:50;359.10;1689.60
55329;DHT22;41205;44.264;19.884;2023-11-19T11:42:31;358.90;1638.40
55329;DHT22;41205;44.264;19.884;2023-11-19T11:50:22;333.40;1715.20
55329;DHT22;41205;44.264;19.884;2023-11-19T11:55:35;333.20;1715.20
55329;DHT22;41205;44.264;19.884;2023-11-19T11:58:07;333.20;1715.20
55329;DHT22;41205;44.264;19.884;2023-11-19T12:00:40;332.90;1740.80
55329;DHT22;41205;44.264;19.884;2023-11-19T12:03:07;333.20;1715.20
55329;DHT22;41205;44.264;19.884;2023-11-19T12:05:38;333.00;1715.20
55329;DHT22;41205;44.264;19.884;2023-11-19T12:08:06;332.80;1766.40
55329;DHT22;41205;44.264;19.884;2023-11-19T12:10:49;308.10;1740.80
55329;DHT22;41205;44.264;19.884;2023-11-19T12:13:16;308.10;1715.20
55329;DHT22;41205;44.264;19.884;2023-11-19T12:18:29;332.80;1740.80
55329;DHT22;41205;44.264;19.884;2023-11-19T12:20:56;308.10;1689.60
55329;DHT22;41205;44.264;19.884;2023-11-19T12:23:23;308.10;1715.20
55329;DHT22;41205;44.264;19.884;2023-11-19T12:25:49;308.10;1689.60
55329;DHT22;41205;44.264;19.884;2023-11-19T12:28:15;308.10;1715.20
55329;DHT22;41205;44.264;19.884;2023-11-19T12:30:43;332.80;1740.80
55329;DHT22;41205;44.264;19.884;2023-11-19T12:33:10;332.90;1740.80
55329;DHT22;41205;44.264;19.884;2023-11-19T12:35:40;308.10;1715.20
55329;DHT22;41205;44.264;19.884;2023-11-19T12:38:05;308.10;1740.80
55329;DHT22;41205;44.264;19.884;2023-11-19T12:40:31;332.80;1766.40
55329;DHT22;41205;44.264;19.884;2023-11-19T12:42:57;307.90;1740.80
55329;DHT22;41205;44.264;19.884;2023-11-19T12:45:27;308.10;1715.20
55329;DHT22;41205;44.264;19.884;2023-11-19T12:48:07;308.00;1715.20
55329;DHT22;41205;44.264;19.884;2023-11-19T12:53:20;308.10;1689.60
55329;DHT22;41205;44.264;19.884;2023-11-19T12:55:46;332.80;1715.20
55329;DHT22;41205;44.264;19.884;2023-11-19T12:58:31;308.10;1715.20
55329;DHT22;41205;44.264;19.884;2023-11-19T13:01:04;307.90;1715.20
55329;DHT22;41205;44.264;19.884;2023-11-19T13:03:37;307.90;1715.20
55329;DHT22;41205;44.264;19.884;2023-11-19T13:06:10;332.90;1740.80
55329;DHT22;41205;44.264;19.884;2023-11-19T13:08:41;308.00;1715.20
55329;DHT22;41205;44.264;19.884;2023-11-19T13:11:07;332.90;1766.40
55329;DHT22;41205;44.264;19.884;2023-11-19T13:14:14;332.90;1766.40
55329;DHT22;41205;44.264;19.884;2023-11-19T13:16:39;332.80;1766.40
55329;DHT22;41205;44.264;19.884;2023-11-19T13:19:05;308.00;1740.80
55329;DHT22;41205;44.264;19.884;2023-11-19T13:21:31;308.10;1740.80
55329;DHT22;41205;44.264;19.884;2023-11-19T13:23:57;332.90;1740.80
55329;DHT22;41205;44.264;19.884;2023-11-19T13:26:23;333.00;1715.20
55329;DHT22;41205;44.264;19.884;2023-11-19T13:28:48;333.10;1740.80
55329;DHT22;41205;44.264;19.884;2023-11-19T13:31:15;333.00;1715.20
55329;DHT22;41205;44.264;19.884;2023-11-19T13:33:41;333.00;1740.80
55329;DHT22;41205;44.264;19.884;2023-11-19T13:36:07;333.00;1766.40
55329;DHT22;41205;44.264;19.884;2023-11-19T13:38:34;333.10;1740.80
55329;DHT22;41205;44.264;19.884;2023-11-19T13:41:03;333.00;1740.80
55329;DHT22;41205;44.264;19.884;2023-11-19T13:43:34;332.80;1766.40
55329;DHT22;41205;44.264;19.884;2023-11-19T13:46:00;332.80;1792.00
55329;DHT22;41205;44.264;19.884;2023-11-19T13:48:25;333.00;1766.40
55329;DHT22;41205;44.264;19.884;2023-11-19T13:50:52;333.00;1766.40
55329;DHT22;41205;44.264;19.884;2023-11-19T13:53:19;332.90;1766.40
55329;DHT22;41205;44.264;19.884;2023-11-19T13:55:44;332.90;1766.40
55329;DHT22;41205;44.264;19.884;2023-11-19T13:58:10;308.10;1766.40
55329;DHT22;41205;44.264;19.884;2023-11-19T14:00:36;308.10;1766.40
55329;DHT22;41205;44.264;19.884;2023-11-19T14:03:02;308.10;1792.00
55329;DHT22;41205;44.264;19.884;2023-11-19T14:05:28;332.80;1792.00
55329;DHT22;41205;44.264;19.884;2023-11-19T14:07:54;308.00;1766.40
55329;DHT22;41205;44.264;19.884;2023-11-19T14:10:22;307.80;1766.40
55329;DHT22;41205;44.264;19.884;2023-11-19T14:12:48;307.80;1766.40
55329;DHT22;41205;44.264;19.884;2023-11-19T14:15:16;307.70;1766.40
55329;DHT22;41205;44.264;19.884;2023-11-19T14:17:45;307.70;1792.00
55329;DHT22;41205;44.264;19.884;2023-11-19T14:20:11;307.50;1792.00
55329;DHT22;41205;44.264;19.884;2023-11-19T14:22:44;307.30;1817.60
55329;DHT22;41205;44.264;19.884;2023-11-19T14:25:13;307.30;1817.60
55329;DHT22;41205;44.264;19.884;2023-11-19T14:27:40;282.50;1817.60
55329;DHT22;41205;44.264;19.884;2023-11-19T14:30:07;282.50;1817.60
55329;DHT22;41205;44.264;19.884;2023-11-19T14:32:35;282.50;1817.60
55329;DHT22;41205;44.264;19.884;2023-11-19T14:35:01;282.50;1817.60
55329;DHT22;41205;44.264;19.884;2023-11-19T14:37:26;282.40;1817.60
55329;DHT22;41205;44.264;19.884;2023-11-19T14:39:52;282.10;1894.40
55329;DHT22;41205;44.264;19.884;2023-11-19T14:42:18;282.20;1920.00
55329;DHT22;41205;44.264;19.884;2023-11-19T14:44:44;282.10;1945.60
55329;DHT22;41205;44.264;19.884;2023-11-19T14:47:10;282.10;1971.20
55329;DHT22;41205;44.264;19.884;2023-11-19T14:49:36;281.90;1996.80
55329;DHT22;41205;44.264;19.884;2023-11-19T14:52:06;281.90;1996.80
55329;DHT22;41205;44.264;19.884;2023-11-19T14:54:31;281.60;2022.40
55329;DHT22;41205;44.264;19.884;2023-11-19T14:56:57;256.80;2022.40